Time;durP1;ratioP1;P1;durP2;ratioP2;P2;SDS_P1;SDS_P2;PMS_P1;PMS_P2;Temp;Humidity;BMP_temperature;BMP_pressure;BME280_temperature;BME280_humidity;BME280_pressure;Samples;Min_cycle;Max_cycle;Signal;HPM_P1;HPM_P2
2022/07/24 00:02:13;;;;;;;5.10;4.55;;;15.10;99.90;;;;;;7391617;19;20038;-91
2022/07/24 00:04:39;;;;;;;4.93;4.45;;;15.10;99.90;;;;;;7393750;19;20057;-91
2022/07/24 00:07:06;;;;;;;5.63;4.97;;;15.10;99.90;;;;;;7388297;19;20027;-91
2022/07/24 00:09:31;;;;;;;6.45;4.50;;;15.10;99.90;;;;;;7388220;19;20015;-91
2022/07/24 00:11:58;;;;;;;5.03;4.63;;;15.00;99.90;;;;;;7390853;19;20018;-90
2022/07/24 00:14:25;;;;;;;6.35;5.25;;;15.00;99.90;;;;;;7390836;19;20019;-90
2022/07/24 00:16:51;;;;;;;6.00;5.32;;;15.00;99.90;;;;;;7392670;19;20035;-91
2022/07/24 00:19:17;;;;;;;5.22;4.75;;;15.00;99.90;;;;;;7392829;19;20018;-91
2022/07/24 00:21:42;;;;;;;6.63;5.30;;;15.00;99.90;;;;;;7392717;19;20011;-90
2022/07/24 00:24:08;;;;;;;6.72;5.25;;;14.90;99.90;;;;;;7391082;19;20018;-89
2022/07/24 00:26:35;;;;;;;10.25;5.63;;;14.90;99.90;;;;;;7391532;19;20724;-89
2022/07/24 00:29:00;;;;;;;8.15;5.15;;;14.90;99.90;;;;;;7392551;19;20023;-90
2022/07/24 00:31:26;;;;;;;7.20;5.95;;;14.80;99.90;;;;;;7393735;19;20399;-90
2022/07/24 00:33:52;;;;;;;8.02;6.00;;;14.80;99.90;;;;;;7393883;19;20103;-90
2022/07/24 00:36:18;;;;;;;8.98;6.50;;;14.80;99.90;;;;;;7394149;19;20029;-91
2022/07/24 00:38:44;;;;;;;7.57;6.57;;;14.80;99.90;;;;;;7396383;19;20372;-91
2022/07/24 00:41:10;;;;;;;9.30;6.60;;;14.80;99.90;;;;;;7399490;19;20010;-92
2022/07/24 00:44:09;;;;;;;7.90;6.55;;;14.70;99.90;;;;;;7395345;19;20023;-90
2022/07/24 00:46:37;;;;;;;8.15;7.13;;;14.60;99.90;;;;;;7394942;19;20996;-90
2022/07/24 00:49:05;;;;;;;8.15;6.93;;;14.60;99.90;;;;;;7398489;19;20039;-90
2022/07/24 00:51:31;;;;;;;8.50;7.55;;;14.60;99.90;;;;;;7395353;19;20327;-90
2022/07/24 00:53:57;;;;;;;9.10;7.20;;;14.60;99.90;;;;;;7395136;19;20490;-91
2022/07/24 00:56:23;;;;;;;8.13;7.13;;;14.50;99.90;;;;;;7397499;19;20014;-91
2022/07/24 00:58:49;;;;;;;10.75;7.57;;;14.50;99.90;;;;;;7398805;19;20352;-91
2022/07/24 01:01:15;;;;;;;8.73;7.88;;;14.50;99.90;;;;;;7393676;19;20022;-90
2022/07/24 01:03:42;;;;;;;9.13;7.55;;;14.50;99.90;;;;;;7387494;19;20007;-91
2022/07/24 01:06:08;;;;;;;8.88;7.75;;;14.50;99.90;;;;;;7397845;19;20495;-90
2022/07/24 01:08:36;;;;;;;9.38;8.38;;;14.50;99.90;;;;;;7397659;19;20455;-91
2022/07/24 01:11:03;;;;;;;9.02;8.15;;;14.50;99.90;;;;;;7398476;19;20054;-90
2022/07/24 01:13:30;;;;;;;9.70;7.65;;;14.40;99.90;;;;;;7398904;19;20011;-90
2022/07/24 01:15:57;;;;;;;8.68;7.82;;;14.40;99.90;;;;;;7396506;19;20010;-91
2022/07/24 01:18:23;;;;;;;9.32;7.95;;;14.40;99.90;;;;;;7397993;19;20021;-89
2022/07/24 01:20:50;;;;;;;8.65;7.72;;;14.40;99.90;;;;;;7395995;19;20014;-90
2022/07/24 01:23:16;;;;;;;10.52;8.38;;;14.40;99.90;;;;;;7398069;19;20042;-91
2022/07/24 01:25:42;;;;;;;11.30;8.30;;;14.40;99.90;;;;;;7394992;19;20503;-91
2022/07/24 01:28:08;;;;;;;9.10;7.93;;;14.40;99.90;;;;;;7396347;19;20019;-90
2022/07/24 01:30:34;;;;;;;9.02;7.50;;;14.50;99.90;;;;;;7396715;19;20041;-90
2022/07/24 01:33:00;;;;;;;8.57;7.75;;;14.50;99.90;;;;;;7397476;19;20019;-90
2022/07/24 01:35:26;;;;;;;9.20;7.78;;;14.50;99.90;;;;;;7397139;19;20022;-90
2022/07/24 01:37:53;;;;;;;8.73;7.82;;;14.50;99.90;;;;;;7393400;19;21403;-89
2022/07/24 01:40:20;;;;;;;8.65;7.75;;;14.50;99.90;;;;;;7396255;19;20010;-91
2022/07/24 01:42:46;;;;;;;11.48;8.50;;;14.50;99.90;;;;;;7392477;19;20015;-90
2022/07/24 01:45:12;;;;;;;9.40;8.38;;;14.50;99.90;;;;;;7396940;19;20015;-90
2022/07/24 01:47:38;;;;;;;10.20;7.85;;;14.40;99.90;;;;;;7393645;19;20019;-91
2022/07/24 01:50:04;;;;;;;9.00;7.72;;;14.40;99.90;;;;;;7394919;19;20014;-91
2022/07/24 01:52:30;;;;;;;9.40;7.85;;;14.40;99.90;;;;;;7395655;19;20029;-90
2022/07/24 01:54:56;;;;;;;9.07;8.20;;;14.40;99.90;;;;;;7390431;19;20026;-91
2022/07/24 01:57:22;;;;;;;9.20;8.25;;;14.40;99.90;;;;;;7392924;19;20029;-90
2022/07/24 01:59:48;;;;;;;10.70;8.63;;;14.40;99.90;;;;;;7392648;19;20074;-92
2022/07/24 02:02:13;;;;;;;9.02;7.85;;;14.40;99.90;;;;;;7397665;19;20014;-88
2022/07/24 02:04:39;;;;;;;8.55;7.60;;;14.40;99.90;;;;;;7394468;19;20022;-91
2022/07/24 02:07:05;;;;;;;12.80;8.20;;;14.40;99.90;;;;;;7394996;19;20776;-90
2022/07/24 02:09:31;;;;;;;9.20;7.80;;;14.40;99.90;;;;;;7396529;19;20078;-91
2022/07/24 02:11:57;;;;;;;10.05;7.97;;;14.40;99.90;;;;;;7395220;19;20508;-91
2022/07/24 02:14:23;;;;;;;10.38;7.82;;;14.40;99.90;;;;;;7391152;19;20022;-91
2022/07/24 02:16:49;;;;;;;11.60;7.50;;;14.40;99.90;;;;;;7396165;19;20368;-90
2022/07/24 02:19:15;;;;;;;9.93;7.07;;;14.40;99.90;;;;;;7396318;19;20014;-91
2022/07/24 02:21:41;;;;;;;8.77;7.93;;;14.40;99.90;;;;;;7396022;19;20010;-91
2022/07/24 02:24:07;;;;;;;12.02;7.53;;;14.40;99.90;;;;;;7391421;19;20021;-92
2022/07/24 02:26:32;;;;;;;9.55;7.82;;;14.40;99.90;;;;;;7392807;19;20010;-90
2022/07/24 02:28:58;;;;;;;10.43;8.07;;;14.40;99.90;;;;;;7374846;19;20022;-91
2022/07/24 02:31:24;;;;;;;8.82;7.60;;;14.40;99.90;;;;;;7395312;19;20031;-92
2022/07/24 02:33:50;;;;;;;9.85;7.82;;;14.40;99.90;;;;;;7397485;19;20487;-89
2022/07/24 02:36:16;;;;;;;8.45;7.65;;;14.40;99.90;;;;;;7389834;19;20007;-89
2022/07/24 02:38:42;;;;;;;9.85;7.95;;;14.40;99.90;;;;;;7394245;19;20086;-90
2022/07/24 02:41:08;;;;;;;11.38;8.02;;;14.40;99.90;;;;;;7395455;19;20010;-90
2022/07/24 02:43:33;;;;;;;9.75;8.00;;;14.40;99.90;;;;;;7392630;19;20022;-90
2022/07/24 02:45:59;;;;;;;9.40;7.57;;;14.40;99.90;;;;;;7393602;19;20026;-90
2022/07/24 02:48:25;;;;;;;10.88;8.07;;;14.40;99.90;;;;;;7394811;19;20344;-90
2022/07/24 02:50:51;;;;;;;9.80;8.10;;;14.40;99.90;;;;;;7395313;19;20436;-90
2022/07/24 02:53:17;;;;;;;8.80;7.85;;;14.40;99.90;;;;;;7394169;19;20022;-90
2022/07/24 02:55:43;;;;;;;10.75;8.18;;;14.40;99.90;;;;;;7391388;19;20018;-90
2022/07/24 02:58:10;;;;;;;9.35;8.20;;;14.40;99.90;;;;;;7386721;19;20024;-90
2022/07/24 03:00:36;;;;;;;10.07;8.48;;;14.30;99.90;;;;;;7395545;19;20025;-90
2022/07/24 03:03:02;;;;;;;11.80;8.02;;;14.40;99.90;;;;;;7394106;19;20011;-89
2022/07/24 03:05:28;;;;;;;9.18;7.93;;;14.30;99.90;;;;;;7394204;19;20014;-91
2022/07/24 03:07:54;;;;;;;9.07;7.70;;;14.30;99.90;;;;;;7391951;19;20066;-91
2022/07/24 03:10:20;;;;;;;9.85;8.48;;;14.30;99.90;;;;;;7394671;19;20367;-91
2022/07/24 03:12:46;;;;;;;11.68;8.48;;;14.40;99.90;;;;;;7376548;19;20520;-91
2022/07/24 03:15:13;;;;;;;10.05;8.00;;;14.40;99.90;;;;;;7380727;19;20025;-91
2022/07/24 03:17:39;;;;;;;11.25;8.60;;;14.30;99.90;;;;;;7390380;19;20372;-91
2022/07/24 03:20:06;;;;;;;11.50;8.35;;;14.30;99.90;;;;;;7392770;19;20025;-91
2022/07/24 03:22:32;;;;;;;11.38;7.88;;;14.30;99.90;;;;;;7395139;19;20483;-90
2022/07/24 03:24:58;;;;;;;9.57;8.57;;;14.40;99.90;;;;;;7389532;19;20025;-91
2022/07/24 03:27:24;;;;;;;9.38;8.13;;;14.40;99.90;;;;;;7393349;19;20578;-89
2022/07/24 03:29:49;;;;;;;12.60;7.85;;;14.40;99.90;;;;;;7395174;19;20035;-90
2022/07/24 03:32:15;;;;;;;10.45;8.40;;;14.30;99.90;;;;;;7391262;19;20055;-91
2022/07/24 03:34:41;;;;;;;9.35;8.23;;;14.30;99.90;;;;;;7392925;19;20014;-90
2022/07/24 03:37:07;;;;;;;10.75;7.35;;;14.40;99.90;;;;;;7390618;19;20364;-90
2022/07/24 03:39:32;;;;;;;10.55;8.27;;;14.40;99.90;;;;;;7397787;19;20033;-90
2022/07/24 03:41:58;;;;;;;10.13;7.97;;;14.40;99.90;;;;;;7397344;19;20023;-91
2022/07/24 03:44:24;;;;;;;9.77;8.55;;;14.30;99.90;;;;;;7394656;19;20026;-91
2022/07/24 03:46:50;;;;;;;11.63;8.07;;;14.30;99.90;;;;;;7395090;19;20014;-91
2022/07/24 03:49:15;;;;;;;11.88;7.95;;;14.30;99.90;;;;;;7393359;19;20816;-91
2022/07/24 03:51:41;;;;;;;8.82;7.93;;;14.30;99.90;;;;;;7394698;19;20023;-91
2022/07/24 03:54:07;;;;;;;8.60;7.68;;;14.30;99.90;;;;;;7390174;19;20023;-90
2022/07/24 03:56:33;;;;;;;12.07;8.45;;;14.30;99.90;;;;;;7393057;19;20479;-91
2022/07/24 03:59:00;;;;;;;10.25;8.25;;;14.30;99.90;;;;;;7392343;19;20019;-90
2022/07/24 04:01:26;;;;;;;10.80;8.27;;;14.40;99.90;;;;;;7392753;19;20038;-90
2022/07/24 04:03:52;;;;;;;10.25;7.68;;;14.40;99.90;;;;;;7392222;19;20027;-90
2022/07/24 04:06:18;;;;;;;11.05;7.30;;;14.40;99.90;;;;;;7389076;19;20019;-89
2022/07/24 04:08:44;;;;;;;9.65;8.18;;;14.50;99.90;;;;;;7390724;19;20102;-90
2022/07/24 04:11:11;;;;;;;11.82;7.53;;;14.50;99.90;;;;;;7391724;19;20031;-90
2022/07/24 04:13:37;;;;;;;10.88;7.45;;;14.50;99.90;;;;;;7400235;19;20022;-90
2022/07/24 04:16:03;;;;;;;12.18;7.72;;;14.60;99.90;;;;;;7389339;19;20026;-90
2022/07/24 04:18:29;;;;;;;9.23;7.60;;;14.60;99.90;;;;;;7401684;19;20031;-90
2022/07/24 04:20:55;;;;;;;11.35;7.38;;;14.70;99.90;;;;;;7400200;19;20015;-90
2022/07/24 04:23:21;;;;;;;8.52;7.20;;;14.70;99.90;;;;;;7397370;19;20035;-90
2022/07/24 04:25:47;;;;;;;10.60;7.97;;;14.70;99.90;;;;;;7394358;19;20018;-91
2022/07/24 04:28:13;;;;;;;12.23;7.25;;;14.80;99.90;;;;;;7403351;19;20078;-90
2022/07/24 04:30:39;;;;;;;8.43;7.30;;;14.80;99.90;;;;;;7401866;19;20027;-91
2022/07/24 04:33:05;;;;;;;11.90;7.82;;;14.80;99.90;;;;;;7403059;19;20010;-90
2022/07/24 04:35:31;;;;;;;10.45;7.28;;;14.90;99.90;;;;;;7396696;19;20070;-90
2022/07/24 04:37:56;;;;;;;7.35;6.45;;;14.90;99.90;;;;;;7395218;19;20022;-89
2022/07/24 04:40:22;;;;;;;9.85;7.40;;;14.90;99.90;;;;;;7395918;19;21470;-89
2022/07/24 04:42:48;;;;;;;10.07;7.70;;;14.90;99.90;;;;;;7399513;19;20018;-90
2022/07/24 04:45:14;;;;;;;7.97;7.18;;;15.00;99.90;;;;;;7398285;19;20360;-90
2022/07/24 04:47:40;;;;;;;9.57;7.20;;;15.00;99.90;;;;;;7396867;19;20356;-90
2022/07/24 04:50:07;;;;;;;8.30;7.38;;;15.00;99.90;;;;;;7401163;19;20355;-90
2022/07/24 04:52:33;;;;;;;9.55;7.45;;;15.00;99.90;;;;;;7401704;19;20114;-90
2022/07/24 04:54:59;;;;;;;9.13;7.32;;;15.10;99.90;;;;;;7395972;19;20015;-91
2022/07/24 04:57:25;;;;;;;8.77;7.60;;;15.10;99.90;;;;;;7395398;19;20020;-89
2022/07/24 04:59:50;;;;;;;9.70;7.45;;;15.20;99.90;;;;;;7397624;19;20019;-90
2022/07/24 05:02:16;;;;;;;9.18;7.10;;;15.20;99.90;;;;;;7396670;19;20379;-91
2022/07/24 05:04:42;;;;;;;9.35;7.53;;;15.30;99.90;;;;;;7401719;19;20015;-90
2022/07/24 05:07:08;;;;;;;9.25;7.93;;;15.40;99.90;;;;;;7393879;19;20389;-90
2022/07/24 05:09:34;;;;;;;11.38;7.72;;;15.40;99.90;;;;;;7394653;19;20605;-90
2022/07/24 05:12:01;;;;;;;9.50;7.70;;;15.50;99.90;;;;;;7395554;19;20031;-89
2022/07/24 05:14:26;;;;;;;10.05;8.20;;;15.60;99.90;;;;;;7395440;19;20483;-90
2022/07/24 05:16:52;;;;;;;9.60;7.18;;;15.70;99.90;;;;;;7392398;19;20022;-90
2022/07/24 05:19:18;;;;;;;8.88;8.00;;;15.80;99.90;;;;;;7395923;19;20019;-90
2022/07/24 05:21:44;;;;;;;8.10;7.30;;;15.90;99.90;;;;;;7398049;19;20523;-90
2022/07/24 05:24:10;;;;;;;9.77;7.40;;;16.00;99.90;;;;;;7397260;19;20014;-91
2022/07/24 05:26:36;;;;;;;10.15;7.88;;;16.00;99.90;;;;;;7396856;19;20018;-89
2022/07/24 05:29:05;;;;;;;9.73;7.93;;;16.10;99.90;;;;;;7395866;19;20019;-90
2022/07/24 05:31:32;;;;;;;9.48;7.93;;;16.10;99.90;;;;;;7395283;19;20015;-91
2022/07/24 05:33:58;;;;;;;10.18;7.97;;;16.20;99.90;;;;;;7399079;19;20014;-90
2022/07/24 05:36:25;;;;;;;9.05;7.45;;;16.20;99.90;;;;;;7409900;19;20036;-88
2022/07/24 05:38:51;;;;;;;11.68;7.80;;;16.30;99.90;;;;;;7397886;19;20010;-90
2022/07/24 05:41:17;;;;;;;8.90;8.00;;;16.40;99.90;;;;;;7398419;19;20389;-90
2022/07/24 05:43:43;;;;;;;10.00;7.97;;;16.50;99.90;;;;;;7394518;19;20384;-89
2022/07/24 05:46:09;;;;;;;8.88;7.88;;;16.60;99.90;;;;;;7395176;19;20500;-89
2022/07/24 05:48:35;;;;;;;8.88;7.60;;;16.70;99.90;;;;;;7399261;19;20815;-91
2022/07/24 05:51:00;;;;;;;8.30;6.85;;;16.80;99.90;;;;;;7397724;19;20038;-91
2022/07/24 05:53:26;;;;;;;8.32;7.53;;;17.00;99.90;;;;;;7397250;19;20050;-90
2022/07/24 05:55:52;;;;;;;8.02;7.32;;;17.10;99.90;;;;;;7391341;19;20062;-89
2022/07/24 05:58:18;;;;;;;9.05;8.25;;;17.10;99.90;;;;;;7399625;19;20026;-90
2022/07/24 06:00:44;;;;;;;8.10;7.13;;;17.10;99.90;;;;;;7393318;19;20018;-91
2022/07/24 06:03:10;;;;;;;10.13;8.38;;;17.10;99.90;;;;;;7396940;19;20038;-90
2022/07/24 06:05:36;;;;;;;9.05;8.07;;;17.00;99.90;;;;;;7393946;19;20735;-90
2022/07/24 06:08:02;;;;;;;9.02;8.07;;;17.10;99.90;;;;;;7396566;19;20026;-91
2022/07/24 06:10:28;;;;;;;9.35;7.57;;;17.10;99.90;;;;;;7397830;19;20021;-90
2022/07/24 06:12:55;;;;;;;9.18;8.27;;;17.40;99.90;;;;;;7398203;19;20078;-90
2022/07/24 06:15:21;;;;;;;8.82;7.57;;;17.60;99.90;;;;;;7395623;19;20031;-90
2022/07/24 06:17:47;;;;;;;8.35;7.53;;;17.80;99.90;;;;;;7391553;19;20023;-90
2022/07/24 06:20:13;;;;;;;9.98;7.55;;;17.90;99.90;;;;;;7391862;19;20011;-91
2022/07/24 06:22:40;;;;;;;6.45;5.78;;;17.90;99.90;;;;;;7394640;19;20010;-91
2022/07/24 06:25:07;;;;;;;9.00;6.80;;;18.00;99.90;;;;;;7394059;19;20018;-89
2022/07/24 06:27:32;;;;;;;8.38;7.53;;;18.20;99.90;;;;;;7394996;19;20041;-90
2022/07/24 06:29:58;;;;;;;8.50;7.50;;;18.40;99.90;;;;;;7397987;19;20380;-91
2022/07/24 06:32:24;;;;;;;7.97;5.55;;;18.60;99.90;;;;;;7393649;19;20030;-91
2022/07/24 06:34:50;;;;;;;8.55;6.30;;;18.80;99.90;;;;;;7397986;19;20478;-90
2022/07/24 06:37:16;;;;;;;9.50;7.10;;;19.00;99.90;;;;;;7392474;19;20018;-91
2022/07/24 06:39:42;;;;;;;7.82;5.75;;;19.10;99.90;;;;;;7393714;19;20022;-90
2022/07/24 06:42:07;;;;;;;4.97;4.45;;;19.10;99.90;;;;;;7396103;19;20400;-91
2022/07/24 06:44:36;;;;;;;9.88;7.00;;;19.20;99.90;;;;;;7390777;19;20486;-91
2022/07/24 06:47:02;;;;;;;7.00;6.07;;;19.30;99.90;;;;;;7395517;19;20014;-90
2022/07/24 06:49:27;;;;;;;6.45;5.72;;;19.40;99.90;;;;;;7393932;19;20024;-89
2022/07/24 06:51:53;;;;;;;8.27;6.97;;;19.50;99.90;;;;;;7390853;19;20477;-91
2022/07/24 06:54:19;;;;;;;8.02;7.22;;;19.60;99.90;;;;;;7392898;19;20022;-90
2022/07/24 06:56:45;;;;;;;6.82;4.75;;;19.80;99.90;;;;;;7392380;19;20014;-90
2022/07/24 06:59:11;;;;;;;9.75;7.32;;;20.10;99.90;;;;;;7395453;19;20008;-90
2022/07/24 07:01:36;;;;;;;8.77;7.40;;;20.30;99.90;;;;;;7387448;19;20433;-91
2022/07/24 07:04:02;;;;;;;9.07;7.32;;;20.80;99.90;;;;;;7396992;19;20066;-90
2022/07/24 07:06:28;;;;;;;5.53;5.03;;;21.00;99.90;;;;;;7395406;19;20387;-90
2022/07/24 07:08:54;;;;;;;7.80;5.63;;;21.20;99.90;;;;;;7394771;19;20025;-91
2022/07/24 07:11:20;;;;;;;9.18;7.40;;;21.30;99.90;;;;;;7391583;19;20026;-91
2022/07/24 07:13:46;;;;;;;9.00;6.47;;;21.50;99.90;;;;;;7394919;19;20499;-90
2022/07/24 07:16:12;;;;;;;10.05;8.70;;;21.60;99.90;;;;;;7392836;19;20018;-91
2022/07/24 07:18:38;;;;;;;10.07;7.47;;;21.70;99.90;;;;;;7393601;19;20685;-90
2022/07/24 07:21:04;;;;;;;7.57;5.93;;;22.00;99.90;;;;;;7392991;19;20506;-90
2022/07/24 07:23:30;;;;;;;6.07;5.40;;;22.60;99.90;;;;;;7393433;19;20015;-90
2022/07/24 07:25:56;;;;;;;11.73;9.18;;;23.20;99.90;;;;;;7384374;19;20028;-90
2022/07/24 07:28:22;;;;;;;9.40;8.48;;;23.80;99.90;;;;;;7387722;19;20073;-90
2022/07/24 07:30:48;;;;;;;7.57;4.95;;;24.40;99.90;;;;;;7399112;19;20074;-90
2022/07/24 07:33:13;;;;;;;10.95;9.45;;;25.10;99.90;;;;;;7397282;19;20384;-90
2022/07/24 07:35:39;;;;;;;10.00;8.95;;;25.30;99.90;;;;;;7389208;19;20046;-90
2022/07/24 07:38:05;;;;;;;5.65;4.95;;;25.30;99.90;;;;;;7392193;19;20022;-89
2022/07/24 07:40:31;;;;;;;12.02;10.07;;;25.40;99.90;;;;;;7390476;19;20022;-90
2022/07/24 07:42:57;;;;;;;11.48;8.25;;;25.40;99.90;;;;;;7395059;19;20014;-90
2022/07/24 07:45:23;;;;;;;7.93;7.13;;;25.70;99.90;;;;;;7391202;19;20018;-89
2022/07/24 07:47:49;;;;;;;9.93;6.22;;;25.90;99.90;;;;;;7389486;19;20077;-91
2022/07/24 07:50:14;;;;;;;6.15;4.82;;;25.60;99.90;;;;;;7392570;19;20036;-90
2022/07/24 07:52:40;;;;;;;11.27;9.02;;;25.80;99.90;;;;;;7394317;19;20018;-90
2022/07/24 07:55:06;;;;;;;7.78;6.63;;;26.30;99.90;;;;;;7393888;19;20093;-90
2022/07/24 07:57:33;;;;;;;13.10;10.50;;;26.60;99.90;;;;;;7394859;19;20014;-91
2022/07/24 07:59:58;;;;;;;4.25;3.80;;;26.50;99.90;;;;;;7386216;19;20022;-90
2022/07/24 08:02:24;;;;;;;11.23;8.57;;;26.70;99.10;;;;;;7391439;19;20092;-90
2022/07/24 08:04:50;;;;;;;11.18;8.77;;;26.70;99.70;;;;;;7395774;19;20010;-91
2022/07/24 08:07:16;;;;;;;16.77;10.95;;;26.90;99.50;;;;;;7391163;19;20014;-90
2022/07/24 08:09:42;;;;;;;15.57;11.68;;;26.90;99.60;;;;;;7386725;19;20038;-91
2022/07/24 08:12:08;;;;;;;11.23;7.57;;;26.80;99.60;;;;;;7375642;19;20018;-91
2022/07/24 08:14:34;;;;;;;12.32;8.48;;;26.80;99.10;;;;;;7388449;19;20038;-92
2022/07/24 08:17:00;;;;;;;9.50;7.05;;;27.00;99.10;;;;;;7386695;19;20021;-92
2022/07/24 08:19:26;;;;;;;6.68;4.93;;;27.30;98.80;;;;;;7382290;19;20082;-89
2022/07/24 08:21:52;;;;;;;7.43;4.90;;;27.40;98.00;;;;;;7381450;19;20014;-90
2022/07/24 08:24:20;;;;;;;10.80;8.57;;;27.60;97.80;;;;;;7391147;19;20023;-89
2022/07/24 08:26:47;;;;;;;14.43;7.43;;;27.60;98.10;;;;;;7390877;19;20025;-89
2022/07/24 08:29:13;;;;;;;14.05;6.35;;;27.50;97.90;;;;;;7387660;19;20109;-89
2022/07/24 08:31:39;;;;;;;9.52;7.55;;;27.00;98.00;;;;;;7378796;19;20458;-89
2022/07/24 08:34:05;;;;;;;10.35;9.15;;;26.70;98.40;;;;;;7383607;19;20521;-89
2022/07/24 08:36:31;;;;;;;11.82;6.15;;;26.80;98.40;;;;;;7387586;19;20470;-89
2022/07/24 08:38:57;;;;;;;12.38;9.27;;;27.00;98.10;;;;;;7392511;19;20022;-89
2022/07/24 08:41:23;;;;;;;14.63;9.90;;;27.30;98.20;;;;;;7386177;19;20026;-90
2022/07/24 08:43:49;;;;;;;11.65;8.80;;;27.60;97.90;;;;;;7393642;19;20017;-88
2022/07/24 08:46:16;;;;;;;9.85;7.88;;;27.30;97.40;;;;;;7396374;19;20707;-89
2022/07/24 08:48:45;;;;;;;11.57;8.48;;;27.20;97.50;;;;;;7388879;19;20022;-89
2022/07/24 08:51:15;;;;;;;10.43;8.45;;;27.10;97.80;;;;;;7389430;19;20037;-90
2022/07/24 08:53:43;;;;;;;11.30;8.52;;;26.90;98.10;;;;;;7392746;19;20021;-90
2022/07/24 08:56:10;;;;;;;9.05;6.90;;;26.70;98.10;;;;;;7377161;19;20022;-89
2022/07/24 08:58:38;;;;;;;10.65;6.65;;;26.40;98.00;;;;;;7396777;19;20018;-88
2022/07/24 09:01:04;;;;;;;9.63;6.40;;;26.20;98.30;;;;;;7396997;19;20086;-89
2022/07/24 09:03:41;;;;;;;9.48;7.15;;;26.10;98.20;;;;;;7397102;19;20019;-89
2022/07/24 09:06:09;;;;;;;10.48;6.60;;;25.80;98.20;;;;;;7396845;19;20019;-90
2022/07/24 09:08:35;;;;;;;6.80;5.72;;;25.60;98.50;;;;;;7392871;19;20356;-90
2022/07/24 09:11:05;;;;;;;6.15;5.65;;;25.60;98.70;;;;;;7392607;19;20026;-89
2022/07/24 09:16:24;;;;;;;13.32;5.13;;;25.40;99.00;;;;;;7394066;19;20019;-90
2022/07/24 09:19:01;;;;;;;96.75;21.92;;;25.60;99.60;;;;;;7394643;19;20015;-89
2022/07/24 09:21:27;;;;;;;21.05;7.88;;;25.70;99.90;;;;;;7396559;19;20031;-89
2022/07/24 09:23:53;;;;;;;52.90;14.63;;;25.70;99.90;;;;;;7399333;19;20015;-89
2022/07/24 09:26:19;;;;;;;32.78;10.73;;;25.70;99.90;;;;;;7396200;19;20014;-86
2022/07/24 09:28:54;;;;;;;16.83;6.82;;;25.70;99.90;;;;;;7400056;19;20059;-89
2022/07/24 09:31:22;;;;;;;19.17;7.82;;;25.50;99.90;;;;;;7397758;19;20022;-89
2022/07/24 09:33:48;;;;;;;15.95;6.65;;;25.70;99.90;;;;;;7396161;19;20083;-90
2022/07/24 09:36:17;;;;;;;10.38;5.60;;;25.90;99.90;;;;;;7388397;19;20018;-89
2022/07/24 09:38:49;;;;;;;8.38;5.35;;;25.90;99.90;;;;;;7397681;19;20372;-90
2022/07/24 09:41:21;;;;;;;9.10;5.55;;;25.80;99.90;;;;;;7395882;19;20018;-84
2022/07/24 09:43:57;;;;;;;7.80;4.55;;;25.90;99.90;;;;;;7393268;19;21007;-91
2022/07/24 09:46:25;;;;;;;9.50;4.95;;;26.00;99.90;;;;;;7396592;19;20014;-95
2022/07/24 09:48:56;;;;;;;12.38;4.55;;;26.10;99.90;;;;;;7407310;19;20014;-96
2022/07/24 09:51:24;;;;;;;6.72;4.38;;;26.20;99.90;;;;;;7412447;19;20007;-95
2022/07/24 09:53:59;;;;;;;5.68;4.25;;;26.20;99.90;;;;;;7414575;19;20010;-96
2022/07/24 09:56:25;;;;;;;6.05;3.95;;;25.90;99.40;;;;;;7411307;19;20025;-95
2022/07/24 09:58:56;;;;;;;4.35;3.42;;;25.70;99.90;;;;;;7405903;19;20354;-96
2022/07/24 10:01:24;;;;;;;5.50;3.95;;;25.40;99.90;;;;;;7410694;19;20051;-96
2022/07/24 10:03:52;;;;;;;5.47;3.55;;;25.10;99.90;;;;;;7408270;19;20536;-96
2022/07/24 10:06:25;;;;;;;3.92;3.53;;;25.00;99.90;;;;;;7409720;19;20019;-96
2022/07/24 10:08:52;;;;;;;4.97;3.50;;;24.90;99.90;;;;;;7405596;19;20022;-96
2022/07/24 10:11:19;;;;;;;5.18;3.30;;;25.10;99.90;;;;;;7404886;19;20077;-96
2022/07/24 10:13:46;;;;;;;4.10;3.20;;;25.00;99.90;;;;;;7404010;19;20014;-95
2022/07/24 10:16:14;;;;;;;3.85;3.33;;;25.00;99.90;;;;;;7404672;19;20031;-92
2022/07/24 10:18:48;;;;;;;4.32;3.50;;;25.00;99.90;;;;;;7402627;19;19999;-96
2022/07/24 10:21:35;;;;;;;3.42;3.13;;;25.10;99.90;;;;;;7404955;19;20019;-96
2022/07/24 10:24:06;;;;;;;3.35;3.00;;;25.00;99.90;;;;;;7407616;19;20006;-96
2022/07/24 10:26:40;;;;;;;5.68;3.53;;;25.00;99.90;;;;;;7405172;19;20022;-96
2022/07/24 10:29:14;;;;;;;3.28;2.97;;;25.10;99.90;;;;;;7410061;19;20007;-96
2022/07/24 10:31:45;;;;;;;4.50;3.13;;;25.00;99.90;;;;;;7416830;19;20002;-96
2022/07/24 10:34:36;;;;;;;4.07;3.20;;;24.80;99.90;;;;;;7410399;19;20010;-96
2022/07/24 10:37:23;;;;;;;3.50;3.20;;;24.80;99.90;;;;;;7402634;19;20035;-96
2022/07/24 10:39:49;;;;;;;4.05;3.00;;;25.00;99.90;;;;;;7401437;19;20006;-96
2022/07/24 10:42:15;;;;;;;4.38;2.95;;;25.10;99.90;;;;;;7400767;19;20360;-96
2022/07/24 10:44:42;;;;;;;4.60;3.15;;;25.20;99.90;;;;;;7401022;19;20006;-96
2022/07/24 10:47:13;;;;;;;4.40;3.20;;;25.40;99.90;;;;;;7404236;19;20014;-96
2022/07/24 10:49:53;;;;;;;3.75;3.08;;;25.50;99.90;;;;;;7401772;19;20049;-96
2022/07/24 10:52:31;;;;;;;3.60;3.30;;;25.30;99.90;;;;;;7399535;19;20506;-96
2022/07/24 10:55:32;;;;;;;3.53;3.22;;;25.50;99.90;;;;;;7396464;19;20443;-95
2022/07/24 10:58:08;;;;;;;5.03;3.15;;;25.60;99.60;;;;;;7397765;19;20014;-96
2022/07/24 11:00:37;;;;;;;4.50;3.00;;;25.70;99.90;;;;;;7400366;19;20010;-96
2022/07/24 11:03:06;;;;;;;3.55;3.25;;;25.70;99.90;;;;;;7399099;19;20014;-96
2022/07/24 11:05:36;;;;;;;3.33;2.88;;;25.70;99.90;;;;;;7400624;19;20019;-96
2022/07/24 11:08:18;;;;;;;4.07;3.17;;;25.70;99.90;;;;;;7402735;19;20066;-96
2022/07/24 11:10:52;;;;;;;3.88;2.90;;;25.80;99.60;;;;;;7398469;19;20015;-96
2022/07/24 11:13:33;;;;;;;4.63;3.10;;;25.90;99.30;;;;;;7397844;19;20007;-95
2022/07/24 11:16:11;;;;;;;5.00;2.90;;;25.90;98.90;;;;;;7400320;19;20026;-96
2022/07/24 11:18:42;;;;;;;2.70;2.50;;;25.60;99.00;;;;;;7399224;19;20002;-96
2022/07/24 11:21:09;;;;;;;4.15;3.20;;;25.60;99.90;;;;;;7396633;19;20484;-93
2022/07/24 11:23:35;;;;;;;3.80;3.38;;;25.50;99.90;;;;;;7397098;19;20018;-93
2022/07/24 11:26:31;;;;;;;4.07;3.00;;;25.30;99.80;;;;;;7395639;19;20038;-92
2022/07/24 11:29:22;;;;;;;3.78;3.10;;;25.30;99.10;;;;;;7396540;19;20082;-93
2022/07/24 11:31:56;;;;;;;3.22;2.80;;;25.40;99.10;;;;;;7394790;19;20011;-92
2022/07/24 11:34:22;;;;;;;5.35;2.90;;;25.30;99.50;;;;;;7394550;19;20013;-92
2022/07/24 11:36:51;;;;;;;3.58;2.80;;;25.30;99.50;;;;;;7396804;19;20026;-92
2022/07/24 11:39:18;;;;;;;4.10;2.95;;;25.40;99.00;;;;;;7396515;19;20025;-93
2022/07/24 11:41:49;;;;;;;3.20;2.90;;;25.60;98.00;;;;;;7397149;19;20010;-89
2022/07/24 11:44:35;;;;;;;3.58;2.83;;;25.60;97.50;;;;;;7394028;19;20019;-94
2022/07/24 11:47:17;;;;;;;5.55;3.05;;;25.50;98.40;;;;;;7397281;19;20047;-93
2022/07/24 11:49:45;;;;;;;2.93;2.63;;;25.50;98.80;;;;;;7398471;19;20030;-94
2022/07/24 11:52:15;;;;;;;3.25;2.78;;;25.40;98.20;;;;;;7391691;19;20277;-93
2022/07/24 11:54:42;;;;;;;4.75;2.80;;;25.60;98.40;;;;;;7394158;19;20046;-93
2022/07/24 11:57:29;;;;;;;2.83;2.63;;;25.90;98.50;;;;;;7393134;19;20010;-93
2022/07/24 11:59:56;;;;;;;3.30;2.80;;;26.00;97.60;;;;;;7393770;19;20024;-94
2022/07/24 12:02:22;;;;;;;4.78;2.83;;;26.20;98.00;;;;;;7391786;19;20038;-93
2022/07/24 12:04:50;;;;;;;3.30;2.90;;;26.30;98.20;;;;;;7391816;19;20017;-93
2022/07/24 12:07:18;;;;;;;3.70;2.53;;;26.10;97.90;;;;;;7393906;19;20011;-93
2022/07/24 12:09:45;;;;;;;2.40;2.25;;;26.10;98.10;;;;;;7397635;19;20014;-91
2022/07/24 12:12:22;;;;;;;3.03;2.72;;;25.90;97.90;;;;;;7392555;19;20595;-92
2022/07/24 12:14:51;;;;;;;3.42;2.72;;;25.80;98.10;;;;;;7395357;19;20022;-92
2022/07/24 12:17:17;;;;;;;5.35;2.80;;;26.00;98.40;;;;;;7402140;19;20070;-93
2022/07/24 12:19:51;;;;;;;3.10;2.80;;;26.20;97.50;;;;;;7408955;19;20011;-93
2022/07/24 12:22:20;;;;;;;3.10;2.80;;;26.30;97.90;;;;;;7403455;19;20002;-95
2022/07/24 12:24:46;;;;;;;3.20;2.90;;;26.10;97.60;;;;;;7394344;19;20512;-93
2022/07/24 12:27:17;;;;;;;4.50;2.50;;;26.00;97.80;;;;;;7392623;19;20082;-94
2022/07/24 12:29:43;;;;;;;3.85;2.80;;;25.80;98.00;;;;;;7396708;19;20910;-94
2022/07/24 12:32:17;;;;;;;3.78;2.90;;;25.70;98.00;;;;;;7395827;19;20010;-93
2022/07/24 12:34:44;;;;;;;4.18;2.80;;;25.50;97.90;;;;;;7401081;19;20026;-93
2022/07/24 12:37:15;;;;;;;3.72;2.85;;;25.50;98.10;;;;;;7399626;19;20014;-94
2022/07/24 12:39:52;;;;;;;6.63;3.00;;;25.50;98.10;;;;;;7405949;19;20018;-93
2022/07/24 12:42:28;;;;;;;3.00;2.50;;;25.60;97.80;;;;;;7400640;19;20010;-93
2022/07/24 12:45:04;;;;;;;3.17;2.50;;;25.70;98.00;;;;;;7400971;19;20110;-93
2022/07/24 12:47:30;;;;;;;5.88;2.97;;;25.80;97.70;;;;;;7401414;19;20030;-93
2022/07/24 12:49:56;;;;;;;3.42;3.13;;;26.10;97.50;;;;;;7402577;19;20360;-93